createdAt,value
2019-03-20T00:01:07.972Z,65.44
2019-03-20T00:02:16.578Z,65.09
2019-03-20T00:03:23.784Z,63.86
2019-03-20T00:04:31.037Z,62.89
2019-03-20T00:05:38.788Z,61.35
2019-03-20T00:06:45.198Z,60.41
2019-03-20T00:07:53.886Z,59.55
2019-03-20T00:09:01.577Z,57.71
2019-03-20T00:10:12.451Z,56.07
2019-03-20T00:11:19.338Z,56.04
2019-03-20T00:12:26.143Z,56.62
2019-03-20T00:13:36.009Z,57.56
2019-03-20T00:14:42.462Z,58.43
2019-03-20T00:15:50.738Z,59.48
2019-03-20T00:16:57.688Z,61.22
2019-03-20T00:18:04.259Z,64.16
2019-03-20T00:19:11.440Z,64.88
2019-03-20T00:20:19.358Z,64.48
2019-03-20T00:21:27.058Z,63.32
2019-03-20T00:22:35.028Z,62.06
2019-03-20T00:23:41.830Z,61.03
2019-03-20T00:24:48.808Z,60.08
2019-03-20T00:25:57.260Z,58.90
2019-03-20T00:27:06.137Z,56.68
2019-03-20T00:28:12.415Z,55.50
2019-03-20T00:29:19.258Z,55.58
2019-03-20T00:30:25.438Z,56.03
2019-03-20T00:31:31.817Z,56.77
2019-03-20T00:32:40.757Z,57.94
2019-03-20T00:33:47.439Z,58.66
2019-03-20T00:35:00.722Z,61.89
2019-03-20T00:36:02.239Z,64.27
2019-03-20T00:37:10.500Z,64.33
2019-03-20T00:38:17.406Z,63.34
2019-03-20T00:39:23.818Z,62.18
2019-03-20T00:40:30.835Z,60.99
2019-03-20T00:41:37.559Z,60.24
2019-03-20T00:42:43.702Z,59.59
2019-03-20T00:43:51.075Z,57.75
2019-03-20T00:44:58.903Z,56.22
2019-03-20T00:46:04.957Z,56.17
2019-03-20T00:47:12.365Z,56.89
2019-03-20T00:48:19.463Z,58.08
2019-03-20T00:49:26.016Z,59.51
2019-03-20T00:50:34.353Z,63.05
2019-03-20T00:51:41.168Z,64.38
2019-03-20T00:52:47.366Z,63.95
2019-03-20T00:53:54.597Z,63.16
2019-03-20T00:55:00.868Z,62.42
2019-03-20T00:56:28.541Z,61.26
2019-03-20T00:57:35.756Z,60.39
2019-03-20T00:58:42.429Z,59.14
2019-03-20T00:59:49.252Z,57.00
2019-03-20T01:00:56.717Z,55.68
2019-03-20T01:02:03.653Z,55.58
2019-03-20T01:03:11.997Z,56.12
2019-03-20T01:04:17.875Z,56.98
2019-03-20T01:05:24.668Z,58.41
2019-03-20T01:06:32.271Z,60.31
2019-03-20T01:07:38.418Z,63.33
2019-03-20T01:08:46.577Z,64.57
2019-03-20T01:09:54.387Z,64.16
2019-03-20T01:11:00.398Z,63.39
2019-03-20T01:12:09.369Z,62.37
2019-03-20T01:13:15.917Z,61.15
2019-03-20T01:14:22.247Z,59.98
2019-03-20T01:15:29.007Z,57.78
2019-03-20T01:16:36.688Z,55.97
2019-03-20T01:17:43.439Z,55.78
2019-03-20T01:18:50.829Z,56.45
2019-03-20T01:19:58.106Z,57.26
2019-03-20T01:21:04.315Z,58.01
2019-03-20T01:22:10.887Z,59.90
2019-03-20T01:23:18.039Z,63.47
2019-03-20T01:24:24.675Z,64.00
2019-03-20T01:25:35.076Z,63.13
2019-03-20T01:26:42.647Z,62.19
2019-03-20T01:27:49.317Z,60.94
2019-03-20T01:28:55.808Z,59.91
2019-03-20T01:30:02.287Z,57.98
2019-03-20T01:31:08.566Z,56.22
2019-03-20T01:32:15.319Z,56.01
2019-03-20T01:33:21.489Z,56.44
2019-03-20T01:34:48.838Z,57.32
2019-03-20T01:35:56.958Z,57.87
2019-03-20T01:37:03.359Z,61.46
2019-03-20T01:38:10.803Z,63.43
2019-03-20T01:39:17.758Z,63.32
2019-03-20T01:40:23.788Z,62.29
2019-03-20T01:41:37.868Z,61.16
2019-03-20T01:42:40.405Z,59.99
2019-03-20T01:43:46.849Z,57.97
2019-03-20T01:44:53.498Z,56.17
2019-03-20T01:46:00.928Z,55.89
2019-03-20T01:47:07.032Z,56.24
2019-03-20T01:48:13.634Z,56.93
2019-03-20T01:49:21.946Z,57.88
2019-03-20T01:50:28.238Z,61.32
2019-03-20T01:51:35.217Z,62.74
2019-03-20T01:52:42.359Z,62.80
2019-03-20T01:53:48.507Z,62.05
2019-03-20T01:54:57.476Z,60.60
2019-03-20T01:56:04.592Z,59.50
2019-03-20T01:57:11.160Z,57.31
2019-03-20T01:58:17.876Z,55.48
2019-03-20T01:59:25.549Z,55.40
2019-03-20T02:00:32.069Z,56.16
2019-03-20T02:01:38.519Z,56.93
2019-03-20T02:02:46.479Z,59.85
2019-03-20T02:03:53.712Z,62.03
2019-03-20T02:05:01.260Z,61.88
2019-03-20T02:06:07.649Z,61.07
2019-03-20T02:07:16.230Z,60.23
2019-03-20T02:08:23.652Z,59.28
2019-03-20T02:09:30.089Z,57.59
2019-03-20T02:10:36.769Z,56.04
2019-03-20T02:11:43.840Z,55.78
2019-03-20T02:12:51.189Z,56.22
2019-03-20T02:13:58.069Z,57.51
2019-03-20T02:15:08.218Z,60.65
2019-03-20T02:16:16.740Z,62.00
2019-03-20T02:17:24.780Z,61.73
2019-03-20T02:18:31.259Z,61.02
2019-03-20T02:19:37.830Z,60.20
2019-03-20T02:20:44.900Z,59.38
2019-03-20T02:21:50.999Z,57.26
2019-03-20T02:22:58.082Z,55.59
2019-03-20T02:24:05.220Z,55.23
2019-03-20T02:25:12.406Z,55.81
2019-03-20T02:26:20.551Z,57.11
2019-03-20T02:27:28.016Z,60.61
2019-03-20T02:28:36.510Z,61.36
2019-03-20T02:29:45.590Z,60.82
2019-03-20T02:30:52.986Z,60.24
2019-03-20T02:31:59.621Z,59.39
2019-03-20T02:33:08.336Z,57.55
2019-03-20T02:34:14.921Z,55.64
2019-03-20T02:35:22.972Z,55.54
2019-03-20T02:36:29.769Z,56.28
2019-03-20T02:37:35.609Z,59.34
2019-03-20T02:38:42.712Z,61.02
2019-03-20T02:39:49.086Z,60.75
2019-03-20T02:40:55.680Z,58.04
2019-03-20T02:42:03.014Z,57.07
2019-03-20T02:43:10.221Z,59.62
2019-03-20T02:44:17.033Z,61.13
2019-03-20T02:45:24.382Z,59.72
2019-03-20T02:46:30.515Z,57.52
2019-03-20T02:47:37.190Z,57.45
2019-03-20T02:48:44.963Z,59.83
2019-03-20T02:49:53.013Z,60.52
2019-03-20T02:51:00.392Z,58.80
2019-03-20T02:52:08.911Z,57.11
2019-03-20T02:53:16.824Z,57.79
2019-03-20T02:54:26.014Z,60.03
2019-03-20T02:55:32.326Z,60.37
2019-03-20T02:56:38.687Z,57.99
2019-03-20T02:57:45.348Z,56.35
2019-03-20T02:58:52.202Z,57.98
2019-03-20T02:59:59.758Z,59.74
2019-03-20T03:01:06.147Z,60.07
2019-03-20T03:02:13.472Z,59.54
2019-03-20T03:03:20.995Z,57.22
2019-03-20T03:04:28.584Z,56.90
2019-03-20T03:05:34.766Z,59.14
2019-03-20T03:06:42.673Z,59.68
2019-03-20T03:07:49.383Z,57.87
2019-03-20T03:08:55.795Z,56.46
2019-03-20T03:10:22.893Z,58.19
2019-03-20T03:11:29.053Z,60.53
2019-03-20T03:12:34.905Z,59.43
2019-03-20T03:13:42.875Z,56.92
2019-03-20T03:14:49.632Z,56.79
2019-03-20T03:15:57.673Z,59.08
2019-03-20T03:17:05.077Z,59.70
2019-03-20T03:18:11.945Z,57.88
2019-03-20T03:19:18.907Z,56.18
2019-03-20T03:20:27.880Z,57.20
2019-03-20T03:21:34.635Z,59.24
2019-03-20T03:22:42.879Z,59.60
2019-03-20T03:23:50.517Z,57.42
2019-03-20T03:24:56.520Z,56.11
2019-03-20T03:26:04.211Z,58.19
2019-03-20T03:27:11.628Z,59.57
2019-03-20T03:28:18.294Z,58.97
2019-03-20T03:29:25.296Z,56.50
2019-03-20T03:30:31.539Z,55.98
2019-03-20T03:31:38.119Z,58.41
2019-03-20T03:32:46.342Z,59.15
2019-03-20T03:33:52.735Z,58.92
2019-03-20T03:35:00.939Z,56.80
2019-03-20T03:36:20.510Z,55.78
2019-03-20T03:37:17.728Z,58.57
2019-03-20T03:38:24.768Z,59.50
2019-03-20T03:39:32.251Z,58.94
2019-03-20T03:40:39.159Z,56.77
2019-03-20T03:41:46.063Z,56.29
2019-03-20T03:42:54.940Z,58.41
2019-03-20T03:44:01.101Z,59.16
2019-03-20T03:45:11.571Z,58.87
2019-03-20T03:46:18.809Z,57.00
2019-03-20T03:47:25.862Z,57.21
2019-03-20T03:48:32.738Z,58.97
2019-03-20T03:49:39.661Z,59.43
2019-03-20T03:50:48.373Z,57.18
2019-03-20T03:51:55.968Z,56.07
2019-03-20T03:53:04.695Z,58.26
2019-03-20T03:54:11.818Z,60.14
2019-03-20T03:55:18.532Z,60.13
2019-03-20T03:56:25.841Z,58.05
2019-03-20T03:57:33.634Z,57.53
2019-03-20T03:58:40.092Z,59.59
2019-03-20T03:59:46.187Z,60.32
2019-03-20T04:00:52.130Z,59.49
2019-03-20T04:01:58.843Z,57.27
2019-03-20T04:03:05.120Z,56.93
2019-03-20T04:04:11.832Z,59.58
2019-03-20T04:05:19.568Z,60.60
2019-03-20T04:06:35.423Z,59.23
2019-03-20T04:07:34.202Z,57.06
2019-03-20T04:08:42.592Z,58.46
2019-03-20T04:09:49.500Z,60.30
2019-03-20T04:10:56.868Z,59.98
2019-03-20T04:12:03.189Z,57.52
2019-03-20T04:13:09.991Z,57.11
2019-03-20T04:14:17.791Z,59.15
2019-03-20T04:15:24.237Z,60.16
2019-03-20T04:16:32.457Z,58.88
2019-03-20T04:17:39.583Z,56.58
2019-03-20T04:18:46.197Z,57.67
2019-03-20T04:19:52.780Z,59.46
2019-03-20T04:20:59.209Z,59.21
2019-03-20T04:22:06.042Z,56.57
2019-03-20T04:23:12.803Z,56.41
2019-03-20T04:24:19.089Z,58.70
2019-03-20T04:25:26.086Z,59.23
2019-03-20T04:26:32.289Z,58.57
2019-03-20T04:27:38.770Z,56.44
2019-03-20T04:28:45.548Z,55.93
2019-03-20T04:29:54.046Z,58.58
2019-03-20T04:31:00.396Z,59.15
2019-03-20T04:32:07.387Z,58.04
2019-03-20T04:33:13.537Z,56.65
2019-03-20T04:34:19.910Z,57.60
2019-03-20T04:35:26.348Z,59.21
2019-03-20T04:36:34.366Z,58.99
2019-03-20T04:37:41.728Z,56.99
2019-03-20T04:38:48.836Z,56.37
2019-03-20T04:39:56.179Z,58.23
2019-03-20T04:41:04.911Z,59.31
2019-03-20T04:42:11.870Z,58.68
2019-03-20T04:43:18.485Z,56.79
2019-03-20T04:44:47.940Z,56.78
2019-03-20T04:45:55.407Z,59.60
2019-03-20T04:47:04.059Z,58.99
2019-03-20T04:48:10.967Z,57.66
2019-03-20T04:49:19.448Z,56.24
2019-03-20T04:50:26.674Z,58.33
2019-03-20T04:51:33.788Z,59.71
2019-03-20T04:52:40.059Z,58.73
2019-03-20T04:53:46.809Z,56.46
2019-03-20T04:54:55.257Z,57.28
2019-03-20T04:56:01.698Z,59.20
2019-03-20T04:57:09.538Z,58.41
2019-03-20T04:58:17.188Z,56.35
2019-03-20T04:59:24.558Z,56.52
2019-03-20T05:00:31.915Z,58.60
2019-03-20T05:01:37.858Z,58.81
2019-03-20T05:02:44.478Z,56.56
2019-03-20T05:03:51.708Z,55.26
2019-03-20T05:04:58.235Z,56.93
2019-03-20T05:06:04.617Z,58.08
2019-03-20T05:07:11.348Z,57.78
2019-03-20T05:08:18.938Z,55.52
2019-03-20T05:09:25.798Z,55.33
2019-03-20T05:10:32.119Z,57.53
2019-03-20T05:11:38.869Z,58.02
2019-03-20T05:12:46.110Z,57.89
2019-03-20T05:13:52.798Z,56.32
2019-03-20T05:14:59.228Z,54.99
2019-03-20T05:16:06.149Z,57.05
2019-03-20T05:17:12.392Z,57.91
2019-03-20T05:18:19.279Z,57.92
2019-03-20T05:19:26.118Z,56.23
2019-03-20T05:20:32.309Z,55.43
2019-03-20T05:21:39.670Z,57.38
2019-03-20T05:22:47.567Z,58.16
2019-03-20T05:23:54.607Z,57.44
2019-03-20T05:25:02.265Z,54.94
2019-03-20T05:26:08.938Z,54.72
2019-03-20T05:27:15.997Z,57.21
2019-03-20T05:28:23.758Z,58.23
2019-03-20T05:29:30.137Z,57.64
2019-03-20T05:30:37.027Z,55.82
2019-03-20T05:31:44.587Z,55.38
2019-03-20T05:32:50.858Z,57.65
2019-03-20T05:33:58.057Z,58.08
2019-03-20T05:35:05.325Z,56.10
2019-03-20T05:36:12.518Z,55.23
2019-03-20T05:37:20.118Z,57.07
2019-03-20T05:38:26.053Z,58.80
2019-03-20T05:39:33.168Z,56.77
2019-03-20T05:40:40.335Z,55.82
2019-03-20T05:41:48.798Z,55.79
2019-03-20T05:42:56.906Z,57.83
2019-03-20T05:44:03.390Z,58.82
2019-03-20T05:45:19.517Z,56.96
2019-03-20T05:46:26.568Z,56.33
2019-03-20T05:47:34.725Z,58.58
2019-03-20T05:48:41.744Z,59.58
2019-03-20T05:49:50.108Z,58.03
2019-03-20T05:50:57.114Z,56.39
2019-03-20T05:52:05.165Z,56.54
2019-03-20T05:53:12.167Z,58.70
2019-03-20T05:54:18.829Z,59.58
2019-03-20T05:55:26.670Z,57.36
2019-03-20T05:56:34.566Z,56.31
2019-03-20T05:57:40.797Z,57.05
2019-03-20T05:58:47.525Z,60.51
2019-03-20T05:59:55.350Z,60.16
2019-03-20T06:01:01.799Z,58.20
2019-03-20T06:02:08.772Z,57.44
2019-03-20T06:03:17.559Z,57.47
2019-03-20T06:04:25.018Z,57.47
2019-03-20T06:05:33.778Z,59.03
2019-03-20T06:06:40.479Z,59.35
2019-03-20T06:07:49.020Z,57.86
2019-03-20T06:08:56.287Z,57.89
2019-03-20T06:10:03.318Z,57.96
2019-03-20T06:11:10.319Z,58.15
2019-03-20T06:12:19.091Z,59.90
2019-03-20T06:13:27.308Z,59.56
2019-03-20T06:14:35.525Z,59.57
2019-03-20T06:15:44.417Z,59.61
2019-03-20T06:16:50.966Z,59.15
2019-03-20T06:17:59.030Z,60.31
2019-03-20T06:19:06.421Z,62.74
2019-03-20T06:20:14.535Z,63.61
2019-03-20T06:21:21.000Z,62.08
2019-03-20T06:22:29.080Z,59.75
2019-03-20T06:23:36.309Z,58.39
2019-03-20T06:24:44.049Z,55.92
2019-03-20T06:25:51.435Z,55.78
2019-03-20T06:27:03.453Z,55.96
2019-03-20T06:28:11.519Z,53.93
2019-03-20T06:29:20.002Z,55.03
2019-03-20T06:30:27.539Z,53.88
2019-03-20T06:31:34.249Z,54.18
2019-03-20T06:32:40.679Z,53.81
2019-03-20T06:33:47.401Z,54.35
2019-03-20T06:34:56.290Z,54.81
2019-03-20T06:36:03.899Z,55.57
2019-03-20T06:37:12.999Z,55.55
2019-03-20T06:38:19.395Z,53.59
2019-03-20T06:39:26.760Z,52.99
2019-03-20T06:40:33.570Z,52.64
2019-03-20T06:41:39.861Z,52.81
2019-03-20T06:42:46.526Z,51.95
2019-03-20T06:43:53.429Z,51.73
2019-03-20T06:45:01.779Z,52.02
2019-03-20T06:46:08.360Z,51.27
2019-03-20T06:47:17.959Z,51.60
2019-03-20T06:48:26.149Z,50.92
2019-03-20T06:49:33.531Z,49.58
2019-03-20T06:50:40.201Z,49.43
2019-03-20T06:51:46.897Z,47.19
2019-03-20T06:52:54.581Z,48.55
2019-03-20T06:54:03.054Z,46.81
2019-03-20T06:55:11.077Z,45.82
2019-03-20T06:56:24.683Z,44.90
2019-03-20T06:57:31.851Z,43.56
2019-03-20T06:58:40.179Z,42.37
2019-03-20T07:00:14.129Z,41.22
2019-03-20T07:02:43.802Z,39.30
2019-03-20T07:04:09.810Z,39.32
2019-03-20T07:05:38.577Z,39.49
2019-03-20T07:06:55.410Z,39.93
2019-03-20T07:08:02.773Z,41.11
2019-03-20T07:09:30.611Z,41.53
2019-03-20T07:11:12.583Z,43.54
2019-03-20T07:12:21.643Z,45.73
2019-03-20T07:13:29.492Z,46.40
2019-03-20T07:14:35.960Z,46.98
2019-03-20T07:15:44.361Z,48.24
2019-03-20T07:16:51.868Z,48.76
2019-03-20T07:18:00.080Z,49.77
2019-03-20T07:19:07.805Z,49.87
2019-03-20T07:20:19.268Z,51.33
2019-03-20T07:21:32.561Z,52.15
2019-03-20T07:22:43.927Z,53.33
2019-03-20T07:23:54.122Z,53.56
2019-03-20T07:25:10.061Z,53.37
2019-03-20T07:26:16.520Z,54.60
2019-03-20T07:27:24.542Z,56.25
2019-03-20T07:28:31.402Z,57.22
2019-03-20T07:29:37.882Z,57.01
2019-03-20T07:30:46.092Z,57.42
2019-03-20T07:31:53.441Z,58.79
2019-03-20T07:33:01.106Z,58.71
2019-03-20T07:34:07.778Z,59.22
2019-03-20T07:35:15.127Z,58.93
2019-03-20T07:36:21.383Z,59.14
2019-03-20T07:37:28.042Z,59.24
2019-03-20T07:38:34.967Z,59.76
2019-03-20T07:39:42.131Z,59.72
2019-03-20T07:40:49.051Z,60.02
2019-03-20T07:41:55.899Z,60.62
2019-03-20T07:43:08.658Z,60.96
2019-03-20T07:44:12.831Z,61.06
2019-03-20T07:45:19.419Z,60.79
2019-03-20T07:46:27.288Z,62.22
2019-03-20T07:47:34.459Z,63.86
2019-03-20T07:48:40.798Z,64.49
2019-03-20T07:49:48.031Z,62.48
2019-03-20T07:50:55.120Z,60.60
2019-03-20T07:52:01.335Z,57.80
2019-03-20T07:53:09.401Z,54.46
2019-03-20T07:54:16.672Z,53.30
2019-03-20T07:55:24.903Z,52.66
2019-03-20T07:56:31.440Z,53.14
2019-03-20T07:57:38.568Z,53.88
2019-03-20T07:58:50.091Z,54.36
2019-03-20T07:59:58.681Z,55.21
2019-03-20T08:01:05.532Z,55.74
2019-03-20T08:02:12.488Z,56.33
2019-03-20T08:03:20.957Z,56.31
2019-03-20T08:04:27.769Z,56.84
2019-03-20T08:05:34.858Z,57.94
2019-03-20T08:06:42.638Z,58.78
2019-03-20T08:07:49.788Z,58.58
2019-03-20T08:08:56.437Z,58.88
2019-03-20T08:10:03.175Z,59.33
2019-03-20T08:11:10.488Z,59.69
2019-03-20T08:12:19.007Z,59.95
2019-03-20T08:13:26.243Z,59.81
2019-03-20T08:14:32.734Z,59.87
2019-03-20T08:15:39.890Z,59.62
2019-03-20T08:16:51.005Z,60.07
2019-03-20T08:17:58.678Z,59.21
2019-03-20T08:19:08.048Z,59.96
2019-03-20T08:20:22.528Z,58.39
2019-03-20T08:21:28.827Z,58.51
2019-03-20T08:22:35.748Z,58.65
2019-03-20T08:23:43.030Z,58.82
2019-03-20T08:24:49.742Z,58.18
2019-03-20T08:25:56.531Z,58.24
2019-03-20T08:27:03.727Z,58.96
2019-03-20T08:28:10.548Z,59.34
2019-03-20T08:29:17.060Z,59.45
2019-03-20T08:30:25.691Z,59.21
2019-03-20T08:31:33.239Z,58.41
2019-03-20T08:32:39.216Z,58.37
2019-03-20T08:33:45.397Z,57.98
2019-03-20T08:34:52.993Z,57.33
2019-03-20T08:35:59.211Z,57.27
2019-03-20T08:37:05.488Z,57.07
2019-03-20T08:38:18.212Z,56.11
2019-03-20T08:39:22.674Z,55.94
2019-03-20T08:40:29.631Z,57.05
2019-03-20T08:41:36.462Z,57.13
2019-03-20T08:42:43.819Z,57.57
2019-03-20T08:43:50.284Z,56.90
2019-03-20T08:44:57.640Z,54.71
2019-03-20T08:46:05.163Z,54.37
2019-03-20T08:47:12.119Z,53.67
2019-03-20T08:48:18.746Z,53.83
2019-03-20T08:49:25.318Z,53.41
2019-03-20T08:50:31.661Z,52.57
2019-03-20T08:51:38.711Z,52.26
2019-03-20T08:52:45.532Z,51.51
2019-03-20T08:53:52.607Z,53.37
2019-03-20T08:55:02.291Z,53.76
2019-03-20T08:56:08.918Z,53.25
2019-03-20T08:57:15.825Z,53.02
2019-03-20T08:58:22.538Z,52.60
2019-03-20T08:59:28.948Z,52.48
2019-03-20T09:00:35.459Z,51.95
2019-03-20T09:01:43.058Z,52.14
2019-03-20T09:02:51.288Z,52.06
2019-03-20T09:03:58.173Z,51.97
2019-03-20T09:05:07.932Z,50.05
2019-03-20T09:06:14.690Z,50.25
2019-03-20T09:07:22.500Z,51.18
2019-03-20T09:08:29.911Z,51.24
2019-03-20T09:09:37.080Z,51.96
2019-03-20T09:10:43.681Z,51.21
2019-03-20T09:11:50.048Z,50.88
2019-03-20T09:12:56.665Z,49.06
2019-03-20T09:14:02.867Z,47.97
2019-03-20T09:15:12.899Z,48.89
2019-03-20T09:16:20.749Z,49.50
2019-03-20T09:17:26.790Z,49.91
2019-03-20T09:18:33.729Z,50.05
2019-03-20T09:19:40.464Z,49.14
2019-03-20T09:20:47.102Z,48.95
2019-03-20T09:21:54.673Z,47.99
2019-03-20T09:23:00.923Z,48.79
2019-03-20T09:24:08.519Z,48.92
2019-03-20T09:25:18.864Z,48.38
2019-03-20T09:26:26.554Z,47.98
2019-03-20T09:27:32.633Z,47.71
2019-03-20T09:28:38.919Z,47.55
2019-03-20T09:29:44.956Z,47.16
2019-03-20T09:30:52.563Z,48.37
2019-03-20T09:32:00.032Z,48.28
2019-03-20T09:33:05.943Z,48.24
2019-03-20T09:34:13.651Z,48.44
2019-03-20T09:35:19.974Z,48.94
2019-03-20T09:36:27.090Z,48.38
2019-03-20T09:37:34.892Z,48.84
2019-03-20T09:38:43.705Z,47.63
2019-03-20T09:39:51.202Z,48.69
2019-03-20T09:40:58.730Z,48.44
2019-03-20T09:42:05.652Z,48.52
2019-03-20T09:43:14.290Z,48.24
2019-03-20T09:44:21.842Z,47.42
2019-03-20T09:45:28.593Z,47.28
2019-03-20T09:46:35.053Z,46.71
2019-03-20T09:47:41.153Z,47.94
2019-03-20T09:48:47.854Z,47.35
2019-03-20T09:49:57.145Z,47.43
2019-03-20T09:51:03.563Z,46.17
2019-03-20T09:52:09.696Z,46.79
2019-03-20T09:53:15.803Z,47.65
2019-03-20T09:54:22.925Z,47.73
2019-03-20T09:55:29.003Z,46.42
2019-03-20T09:56:35.353Z,46.27
2019-03-20T09:57:42.566Z,45.28
2019-03-20T09:58:50.462Z,45.45
2019-03-20T09:59:56.892Z,46.58
2019-03-20T10:01:03.995Z,45.86
2019-03-20T10:02:11.475Z,46.22
2019-03-20T10:03:20.533Z,46.30
2019-03-20T10:04:29.095Z,47.19
2019-03-20T10:05:35.392Z,46.33
2019-03-20T10:06:43.333Z,46.42
2019-03-20T10:07:49.618Z,46.24
2019-03-20T10:08:55.852Z,46.48
2019-03-20T10:10:01.927Z,45.47
2019-03-20T10:11:08.080Z,46.00
2019-03-20T10:12:14.453Z,46.44
2019-03-20T10:13:21.992Z,46.85
2019-03-20T10:14:28.214Z,46.19
2019-03-20T10:15:34.340Z,46.73
2019-03-20T10:16:41.203Z,47.61
2019-03-20T10:17:47.841Z,46.68
2019-03-20T10:18:55.912Z,46.19
2019-03-20T10:20:01.902Z,45.26
2019-03-20T10:21:08.148Z,46.35
2019-03-20T10:22:15.201Z,46.14
2019-03-20T10:23:21.853Z,46.68
2019-03-20T10:24:28.349Z,47.64
2019-03-20T10:25:44.185Z,48.31
2019-03-20T10:26:45.312Z,46.53
2019-03-20T10:27:52.050Z,46.85
2019-03-20T10:28:58.927Z,47.54
2019-03-20T10:30:17.142Z,46.03
2019-03-20T10:31:23.525Z,46.65
2019-03-20T10:32:29.897Z,47.29
2019-03-20T10:33:36.370Z,46.33
2019-03-20T10:34:43.296Z,45.56
2019-03-20T10:35:52.035Z,45.15
2019-03-20T10:36:59.579Z,44.32
2019-03-20T10:38:05.789Z,43.90
2019-03-20T10:39:11.836Z,43.06
2019-03-20T10:40:26.147Z,43.90
2019-03-20T10:41:32.379Z,45.51
2019-03-20T10:42:38.890Z,46.02
2019-03-20T10:43:44.933Z,45.44
2019-03-20T10:44:52.713Z,44.96
2019-03-20T10:45:58.932Z,45.07
2019-03-20T10:47:05.354Z,44.38
2019-03-20T10:48:11.393Z,44.62
2019-03-20T10:49:17.603Z,44.13
2019-03-20T10:50:30.772Z,44.13
2019-03-20T10:51:39.549Z,44.17
2019-03-20T10:52:47.775Z,43.60
2019-03-20T10:53:54.092Z,43.32
2019-03-20T10:55:00.485Z,42.91
2019-03-20T10:56:07.590Z,44.06
2019-03-20T10:57:14.437Z,44.10
2019-03-20T10:58:23.036Z,43.79
2019-03-20T10:59:29.083Z,43.75
2019-03-20T11:00:35.854Z,42.98
2019-03-20T11:01:43.001Z,43.72
2019-03-20T11:02:49.002Z,44.24
2019-03-20T11:03:55.318Z,43.33
2019-03-20T11:05:01.273Z,42.98
2019-03-20T11:06:07.905Z,44.86
2019-03-20T11:07:15.531Z,42.72
2019-03-20T11:08:21.555Z,41.88
2019-03-20T11:09:27.677Z,41.84
2019-03-20T11:10:35.233Z,40.56
2019-03-20T11:11:41.524Z,40.24
2019-03-20T11:12:48.604Z,40.78
2019-03-20T11:13:54.859Z,40.41
2019-03-20T11:15:00.891Z,40.22
2019-03-20T11:16:07.095Z,40.23
2019-03-20T11:17:13.338Z,40.47
2019-03-20T11:18:20.904Z,39.91
2019-03-20T11:19:27.314Z,40.03
2019-03-20T11:20:33.627Z,39.81
2019-03-20T11:21:40.592Z,40.46
2019-03-20T11:22:47.584Z,41.93
2019-03-20T11:23:54.317Z,42.44
2019-03-20T11:25:01.287Z,41.73
2019-03-20T11:26:07.535Z,39.75
2019-03-20T11:27:13.644Z,40.28
2019-03-20T11:28:19.984Z,39.15
2019-03-20T11:29:26.475Z,39.55
2019-03-20T11:30:34.401Z,39.29
2019-03-20T11:31:40.834Z,40.13
2019-03-20T11:32:47.605Z,40.02
2019-03-20T11:33:54.512Z,39.94
2019-03-20T11:35:00.742Z,41.35
2019-03-20T11:36:07.384Z,42.79
2019-03-20T11:37:13.876Z,42.74
2019-03-20T11:38:20.152Z,43.57
2019-03-20T11:39:29.935Z,44.41
2019-03-20T11:40:37.549Z,43.74
2019-03-20T11:43:03.895Z,42.73
2019-03-20T11:44:09.790Z,43.12
2019-03-20T11:45:16.295Z,42.26
2019-03-20T11:46:22.753Z,42.45
2019-03-20T11:47:28.996Z,42.02
2019-03-20T11:48:35.105Z,42.74
2019-03-20T11:49:41.475Z,41.30
2019-03-20T11:50:47.826Z,40.34
2019-03-20T11:51:55.235Z,40.72
2019-03-20T11:53:02.156Z,41.96
2019-03-20T11:54:11.495Z,43.11
2019-03-20T11:55:17.545Z,43.68
2019-03-20T11:56:24.905Z,43.49
2019-03-20T11:57:32.693Z,43.92
2019-03-20T11:58:39.276Z,45.13
2019-03-20T11:59:45.386Z,45.30
2019-03-20T12:00:52.565Z,45.63
2019-03-20T12:02:02.412Z,46.80
2019-03-20T12:03:10.256Z,46.52
2019-03-20T12:04:17.665Z,46.20
2019-03-20T12:05:24.109Z,47.32
2019-03-20T12:06:31.216Z,46.91
2019-03-20T12:07:37.682Z,46.34
2019-03-20T12:08:43.722Z,45.99
2019-03-20T12:09:50.396Z,46.43
2019-03-20T12:10:58.607Z,46.52
2019-03-20T12:12:05.130Z,46.02
2019-03-20T12:13:13.292Z,44.96
2019-03-20T12:14:19.507Z,44.73
2019-03-20T12:15:25.654Z,44.64
2019-03-20T12:16:32.257Z,45.00
2019-03-20T12:17:40.346Z,44.87
2019-03-20T12:18:46.803Z,45.12
2019-03-20T12:19:54.016Z,45.85
2019-03-20T12:21:00.285Z,45.04
2019-03-20T12:22:07.926Z,46.14
2019-03-20T12:23:14.827Z,45.36
2019-03-20T12:24:21.196Z,44.77
2019-03-20T12:25:32.808Z,44.90
2019-03-20T12:26:39.203Z,45.31
2019-03-20T12:27:45.599Z,44.72
2019-03-20T12:28:52.355Z,45.29
2019-03-20T12:29:58.909Z,44.44
2019-03-20T12:31:06.797Z,43.50
2019-03-20T12:32:13.385Z,42.53
2019-03-20T12:33:19.929Z,42.25
2019-03-20T12:34:25.934Z,42.89
2019-03-20T12:35:44.291Z,43.77
2019-03-20T12:36:50.904Z,44.51
2019-03-20T12:38:17.907Z,44.75
2019-03-20T12:39:24.244Z,44.20
2019-03-20T12:40:34.136Z,43.65
2019-03-20T12:41:40.104Z,42.98
2019-03-20T12:42:47.898Z,43.09
2019-03-20T12:43:54.337Z,42.98
2019-03-20T12:45:00.560Z,43.46
2019-03-20T12:46:07.197Z,43.05
2019-03-20T12:47:13.737Z,42.63
2019-03-20T12:48:21.056Z,42.08
2019-03-20T12:49:27.525Z,40.47
2019-03-20T12:50:33.639Z,40.33
2019-03-20T12:51:40.517Z,40.77
2019-03-20T12:52:48.135Z,41.70
2019-03-20T12:53:54.388Z,41.32
2019-03-20T12:55:03.132Z,41.87
2019-03-20T12:56:09.247Z,42.14
2019-03-20T12:57:15.539Z,42.21
2019-03-20T12:58:24.021Z,42.59
2019-03-20T12:59:30.489Z,41.77
2019-03-20T13:00:37.034Z,40.10
2019-03-20T13:01:44.028Z,40.77
2019-03-20T13:02:50.688Z,41.20
2019-03-20T13:03:57.798Z,41.09
2019-03-20T13:05:06.468Z,39.18
2019-03-20T13:06:13.555Z,39.55
2019-03-20T13:07:20.406Z,40.12
2019-03-20T13:08:29.147Z,40.21
2019-03-20T13:09:35.483Z,41.12
2019-03-20T13:10:43.427Z,41.10
2019-03-20T13:11:51.759Z,40.84
2019-03-20T13:12:59.664Z,40.77
2019-03-20T13:14:05.695Z,40.65
2019-03-20T13:15:23.205Z,40.50
2019-03-20T13:16:29.518Z,40.65
2019-03-20T13:17:35.977Z,40.52
2019-03-20T13:18:42.166Z,40.52
2019-03-20T13:19:48.519Z,40.34
2019-03-20T13:20:57.434Z,40.56
2019-03-20T13:22:03.482Z,40.17
2019-03-20T13:23:20.680Z,40.12
2019-03-20T13:24:27.369Z,39.93
2019-03-20T13:25:33.685Z,39.61
2019-03-20T13:26:40.045Z,37.74
2019-03-20T13:27:46.023Z,38.79
2019-03-20T13:28:52.359Z,38.45
2019-03-20T13:30:01.278Z,38.36
2019-03-20T13:31:15.270Z,38.76
2019-03-20T13:32:21.756Z,39.51
2019-03-20T13:33:27.650Z,40.09
2019-03-20T13:34:33.959Z,41.01
2019-03-20T13:35:40.427Z,40.73
2019-03-20T13:36:47.001Z,40.53
2019-03-20T13:37:53.900Z,40.59
2019-03-20T13:39:00.299Z,42.10
2019-03-20T13:40:14.630Z,41.21
2019-03-20T13:41:19.127Z,40.91
2019-03-20T13:42:25.828Z,40.61
2019-03-20T13:43:32.367Z,40.74
2019-03-20T13:44:38.771Z,41.64
2019-03-20T13:45:46.050Z,41.35
2019-03-20T13:46:54.538Z,41.06
2019-03-20T13:48:01.920Z,41.55
2019-03-20T13:49:08.389Z,41.66
2019-03-20T13:50:17.822Z,40.85
2019-03-20T13:51:24.237Z,40.17
2019-03-20T13:52:30.579Z,40.76
2019-03-20T13:53:37.412Z,40.96
2019-03-20T13:54:46.660Z,41.89
2019-03-20T13:55:53.119Z,42.32
2019-03-20T13:57:00.701Z,41.32
2019-03-20T13:58:06.814Z,42.51
2019-03-20T13:59:13.389Z,41.59
2019-03-20T14:00:21.763Z,41.18
2019-03-20T14:01:28.394Z,40.77
2019-03-20T14:02:34.579Z,41.66
2019-03-20T14:03:40.710Z,41.44
2019-03-20T14:04:46.832Z,42.03
2019-03-20T14:05:54.047Z,42.60
2019-03-20T14:07:00.100Z,41.54
2019-03-20T14:08:07.028Z,42.71
2019-03-20T14:09:15.554Z,41.40
2019-03-20T14:10:29.458Z,42.29
2019-03-20T14:11:35.660Z,42.79
2019-03-20T14:12:42.230Z,42.35
2019-03-20T14:13:48.530Z,42.55
2019-03-20T14:14:55.133Z,42.11
2019-03-20T14:16:01.500Z,42.52
2019-03-20T14:17:07.980Z,42.41
2019-03-20T14:18:14.900Z,41.35
2019-03-20T14:19:21.991Z,41.59
2019-03-20T14:20:33.263Z,41.66
2019-03-20T14:21:39.638Z,40.99
2019-03-20T14:22:45.744Z,40.53
2019-03-20T14:23:51.990Z,41.40
2019-03-20T14:24:58.131Z,41.67
2019-03-20T14:26:04.641Z,42.91
2019-03-20T14:27:11.950Z,43.17
2019-03-20T14:28:18.431Z,42.48
2019-03-20T14:29:24.812Z,41.89
2019-03-20T14:30:33.762Z,42.44
2019-03-20T14:31:42.417Z,40.96
2019-03-20T14:32:48.913Z,40.66
2019-03-20T14:33:55.548Z,40.69